Time;durP1;ratioP1;P1;durP2;ratioP2;P2;SDS_P1;SDS_P2;PMS_P1;PMS_P2;Temp;Humidity;BMP_temperature;BMP_pressure;BME280_temperature;BME280_humidity;BME280_pressure;Samples;Min_cycle;Max_cycle;Signal;HPM_P1;HPM_P2
2021/12/11 00:00:28;;;;;;;47.17;20.97;;;2.60;99.90;;;;;;5043960;28;20937;-43
2021/12/11 00:03:02;;;;;;;42.37;21.33;;;2.60;99.90;;;;;;5045434;28;20199;-46
2021/12/11 00:05:29;;;;;;;51.10;21.60;;;2.60;99.90;;;;;;5052027;28;20207;-45
2021/12/11 00:07:58;;;;;;;52.37;23.23;;;2.60;99.90;;;;;;5046209;28;20191;-46
2021/12/11 00:10:29;;;;;;;49.60;22.23;;;2.60;99.90;;;;;;5046439;28;20226;-43
2021/12/11 00:12:59;;;;;;;60.63;24.23;;;2.60;99.90;;;;;;5051563;28;20195;-44
2021/12/11 00:15:29;;;;;;;51.73;23.53;;;2.50;99.90;;;;;;5057514;28;20207;-46
2021/12/11 00:18:01;;;;;;;46.63;22.27;;;2.60;99.90;;;;;;5044908;28;20274;-43
2021/12/11 00:20:32;;;;;;;46.73;21.63;;;2.60;99.90;;;;;;5051972;28;20910;-43
2021/12/11 00:22:59;;;;;;;48.93;21.63;;;2.60;99.90;;;;;;5063689;28;20290;-43
2021/12/11 00:25:27;;;;;;;46.07;21.73;;;2.60;99.90;;;;;;5049962;28;20940;-48
2021/12/11 00:28:02;;;;;;;53.47;23.07;;;2.60;99.90;;;;;;5051597;28;20207;-45
2021/12/11 00:30:32;;;;;;;51.50;23.30;;;2.60;99.90;;;;;;5044835;28;20202;-45
2021/12/11 00:33:02;;;;;;;48.73;23.53;;;2.60;99.90;;;;;;5044378;28;20206;-48
2021/12/11 00:35:30;;;;;;;44.47;21.27;;;2.60;99.90;;;;;;5044967;28;20932;-46
2021/12/11 00:38:05;;;;;;;49.67;22.80;;;2.60;99.90;;;;;;5053676;28;20206;-50
2021/12/11 00:40:35;;;;;;;49.37;22.87;;;2.60;99.90;;;;;;5047192;28;20247;-45
2021/12/11 00:43:04;;;;;;;48.70;22.97;;;2.60;99.90;;;;;;5053376;28;20256;-47
2021/12/11 00:45:36;;;;;;;50.57;23.03;;;2.60;99.90;;;;;;5045827;28;20210;-42
2021/12/11 00:48:08;;;;;;;47.80;24.07;;;2.60;99.90;;;;;;5042865;28;20203;-45
2021/12/11 00:50:38;;;;;;;56.33;24.60;;;2.50;99.90;;;;;;5046046;28;20199;-44
2021/12/11 00:53:11;;;;;;;49.37;24.13;;;2.50;99.90;;;;;;5059132;28;20199;-44
2021/12/11 00:55:42;;;;;;;58.80;24.00;;;2.50;99.90;;;;;;5042541;28;20218;-48
2021/12/11 00:58:12;;;;;;;49.77;23.33;;;2.50;99.90;;;;;;5049025;28;20198;-43
2021/12/11 01:00:44;;;;;;;47.63;22.17;;;2.50;99.90;;;;;;5053360;28;20211;-48
2021/12/11 01:03:12;;;;;;;52.50;22.50;;;2.50;99.90;;;;;;5047848;28;20895;-44
2021/12/11 01:05:42;;;;;;;43.23;22.40;;;2.50;99.90;;;;;;5064619;28;20260;-48
2021/12/11 01:08:17;;;;;;;47.30;21.77;;;2.50;99.90;;;;;;5053985;28;20651;-43
2021/12/11 01:10:54;;;;;;;47.10;22.40;;;2.50;99.90;;;;;;5052923;28;20689;-45
2021/12/11 01:13:25;;;;;;;45.73;20.63;;;2.50;99.90;;;;;;5048279;28;20214;-45
2021/12/11 01:15:56;;;;;;;52.90;22.70;;;2.60;99.90;;;;;;5051073;28;20199;-48
2021/12/11 01:18:34;;;;;;;53.50;23.20;;;2.50;99.90;;;;;;5061618;28;20848;-46
2021/12/11 01:21:08;;;;;;;47.80;24.27;;;2.50;99.90;;;;;;5054139;28;20206;-46
2021/12/11 01:23:56;;;;;;;49.93;22.53;;;2.50;99.90;;;;;;5051659;28;20233;-44
2021/12/11 01:26:24;;;;;;;45.93;21.43;;;2.50;99.90;;;;;;5061091;28;20205;-41
2021/12/11 01:28:52;;;;;;;42.87;20.77;;;2.50;99.90;;;;;;5048474;28;20231;-45
2021/12/11 01:31:21;;;;;;;50.47;22.67;;;2.50;99.90;;;;;;5047155;28;20805;-43
2021/12/11 01:33:48;;;;;;;45.37;21.93;;;2.50;99.90;;;;;;5044990;28;20191;-42
2021/12/11 01:36:15;;;;;;;47.67;22.80;;;2.50;99.90;;;;;;5040787;28;20199;-42
2021/12/11 01:38:42;;;;;;;54.33;24.93;;;2.40;99.90;;;;;;5050576;28;20219;-42
2021/12/11 01:41:12;;;;;;;52.03;23.23;;;2.40;99.90;;;;;;5044552;28;20563;-44
2021/12/11 01:43:42;;;;;;;45.87;21.50;;;2.40;99.90;;;;;;5050357;28;20744;-44
2021/12/11 01:46:10;;;;;;;49.57;22.50;;;2.40;99.90;;;;;;5047437;28;20221;-42
2021/12/11 01:48:41;;;;;;;46.30;20.43;;;2.40;99.90;;;;;;5050650;28;20224;-42
2021/12/11 01:51:11;;;;;;;49.10;22.03;;;2.50;99.90;;;;;;5041201;28;20713;-45
2021/12/11 01:53:41;;;;;;;41.00;21.57;;;2.40;99.90;;;;;;5050450;28;20206;-46
2021/12/11 01:56:12;;;;;;;52.03;22.23;;;2.40;99.90;;;;;;5059171;28;20210;-42
2021/12/11 01:58:44;;;;;;;50.50;22.97;;;2.40;99.90;;;;;;5048823;28;20219;-42
2021/12/11 02:01:21;;;;;;;43.63;21.20;;;2.50;99.90;;;;;;5058023;28;20187;-44
2021/12/11 02:03:50;;;;;;;47.87;23.13;;;2.50;99.90;;;;;;5044669;28;20550;-47
2021/12/11 02:06:17;;;;;;;49.63;23.60;;;2.50;99.90;;;;;;5040295;28;20301;-44
2021/12/11 02:08:43;;;;;;;51.17;23.27;;;2.50;99.90;;;;;;5046268;28;20241;-42
2021/12/11 02:11:14;;;;;;;48.13;21.43;;;2.50;99.90;;;;;;5050125;28;20203;-43
2021/12/11 02:13:48;;;;;;;51.60;22.67;;;2.50;99.90;;;;;;5063349;28;20565;-42
2021/12/11 02:16:19;;;;;;;54.90;23.23;;;2.50;99.90;;;;;;5043659;28;20207;-42
2021/12/11 02:18:49;;;;;;;49.10;22.80;;;2.50;99.90;;;;;;5061214;28;20227;-43
2021/12/11 02:21:20;;;;;;;51.70;24.00;;;2.50;99.90;;;;;;5048974;28;20211;-44
2021/12/11 02:23:56;;;;;;;46.77;21.40;;;2.50;99.90;;;;;;5044016;28;20203;-42
2021/12/11 02:26:24;;;;;;;48.40;22.83;;;2.50;99.90;;;;;;5040966;28;20198;-44
2021/12/11 02:28:53;;;;;;;61.73;23.60;;;2.50;99.90;;;;;;5043706;28;20227;-42
2021/12/11 02:31:27;;;;;;;45.80;21.73;;;2.50;99.90;;;;;;5040960;28;20202;-42
2021/12/11 02:33:58;;;;;;;48.27;22.37;;;2.60;99.90;;;;;;5054683;28;20282;-44
2021/12/11 02:36:28;;;;;;;46.33;22.43;;;2.50;99.90;;;;;;5060809;28;20204;-42
2021/12/11 02:39:00;;;;;;;40.30;20.90;;;2.60;99.90;;;;;;5058829;28;20231;-44
2021/12/11 02:41:35;;;;;;;51.43;22.87;;;2.60;99.90;;;;;;5051170;28;20882;-45
2021/12/11 02:44:10;;;;;;;50.43;22.50;;;2.50;99.90;;;;;;5041329;28;20651;-42
2021/12/11 02:46:43;;;;;;;50.83;23.83;;;2.60;99.90;;;;;;5037541;28;20206;-42
2021/12/11 02:49:13;;;;;;;46.97;22.03;;;2.50;99.90;;;;;;5053973;28;20210;-42
2021/12/11 02:51:53;;;;;;;46.70;21.30;;;2.60;99.90;;;;;;5044686;28;20195;-42
2021/12/11 02:54:25;;;;;;;45.67;22.40;;;2.50;99.90;;;;;;5041009;28;20211;-42
2021/12/11 02:56:56;;;;;;;47.13;21.70;;;2.50;99.90;;;;;;5059341;28;20199;-44
2021/12/11 02:59:27;;;;;;;52.10;22.83;;;2.50;99.90;;;;;;5043947;28;20215;-43
2021/12/11 03:01:56;;;;;;;42.67;20.70;;;2.50;99.90;;;;;;5039801;28;20215;-42
2021/12/11 03:04:32;;;;;;;46.07;20.90;;;2.50;99.90;;;;;;5053994;28;20282;-42
2021/12/11 03:07:01;;;;;;;48.77;21.57;;;2.50;99.90;;;;;;5051746;28;20299;-42
2021/12/11 03:09:32;;;;;;;45.50;21.63;;;2.50;99.90;;;;;;5050937;28;20310;-44
2021/12/11 03:12:04;;;;;;;48.53;22.43;;;2.40;99.90;;;;;;5055630;28;20197;-43
2021/12/11 03:14:31;;;;;;;47.50;22.23;;;2.50;99.90;;;;;;5042731;28;20589;-42
2021/12/11 03:16:58;;;;;;;52.43;22.30;;;2.50;99.90;;;;;;5042421;28;20462;-42
2021/12/11 03:19:29;;;;;;;48.60;23.03;;;2.50;99.90;;;;;;5050047;28;20223;-43
2021/12/11 03:21:55;;;;;;;46.30;20.60;;;2.50;99.90;;;;;;5041677;28;20242;-43
2021/12/11 03:24:22;;;;;;;50.13;22.17;;;2.50;99.90;;;;;;5048699;28;20203;-45
2021/12/11 03:26:53;;;;;;;49.07;21.63;;;2.50;99.90;;;;;;5052555;28;20196;-45
2021/12/11 03:29:22;;;;;;;47.03;21.70;;;2.50;99.90;;;;;;5054205;28;20234;-42
2021/12/11 03:31:49;;;;;;;48.00;22.67;;;2.50;99.90;;;;;;5039732;28;20199;-44
2021/12/11 03:34:20;;;;;;;48.23;22.90;;;2.50;99.90;;;;;;5046807;28;20566;-44
2021/12/11 03:36:47;;;;;;;50.50;20.93;;;2.50;99.90;;;;;;5057080;28;20197;-42
2021/12/11 03:39:17;;;;;;;42.67;20.77;;;2.50;99.90;;;;;;5055905;28;20225;-45
2021/12/11 03:41:46;;;;;;;44.90;21.07;;;2.50;99.90;;;;;;5046940;28;20215;-44
2021/12/11 03:44:16;;;;;;;51.13;21.40;;;2.40;99.90;;;;;;5049078;28;20202;-44
2021/12/11 03:46:45;;;;;;;40.93;20.80;;;2.40;99.90;;;;;;5045138;28;20202;-42
2021/12/11 03:49:15;;;;;;;43.40;21.53;;;2.40;99.90;;;;;;5043989;28;20710;-43
2021/12/11 03:51:47;;;;;;;48.23;22.23;;;2.30;99.90;;;;;;5044311;28;20196;-44
2021/12/11 03:54:19;;;;;;;45.47;20.23;;;2.30;99.90;;;;;;5050276;28;20196;-43
2021/12/11 03:56:46;;;;;;;45.50;21.30;;;2.30;99.90;;;;;;5056786;28;20191;-43
2021/12/11 03:59:15;;;;;;;51.13;22.27;;;2.30;99.90;;;;;;5061918;28;20223;-43
2021/12/11 04:01:44;;;;;;;48.77;23.50;;;2.30;99.90;;;;;;5049973;28;20195;-44
2021/12/11 04:04:15;;;;;;;45.30;22.30;;;2.30;99.90;;;;;;5046200;28;20568;-44
2021/12/11 04:06:41;;;;;;;44.30;21.63;;;2.30;99.90;;;;;;5050690;28;20214;-43
2021/12/11 04:09:11;;;;;;;48.60;22.77;;;2.30;99.90;;;;;;5052212;28;20214;-48
2021/12/11 04:11:38;;;;;;;49.00;22.43;;;2.30;99.90;;;;;;5047727;28;20206;-42
2021/12/11 04:14:09;;;;;;;48.00;22.80;;;2.30;99.90;;;;;;5061919;28;20214;-47
2021/12/11 04:16:38;;;;;;;50.53;22.77;;;2.30;99.90;;;;;;5042039;28;20210;-44
2021/12/11 04:19:05;;;;;;;50.30;21.97;;;2.30;99.90;;;;;;5054608;28;20635;-42
2021/12/11 04:21:33;;;;;;;50.57;20.87;;;2.30;99.90;;;;;;5043049;28;20306;-43
2021/12/11 04:24:01;;;;;;;48.67;21.83;;;2.30;99.90;;;;;;5057029;28;20237;-42
2021/12/11 04:26:28;;;;;;;43.57;21.43;;;2.30;99.90;;;;;;5046785;28;20238;-44
2021/12/11 04:28:55;;;;;;;49.10;22.73;;;2.30;99.90;;;;;;5047956;28;20217;-47
2021/12/11 04:31:25;;;;;;;50.47;21.23;;;2.30;99.90;;;;;;5057742;28;20207;-45
2021/12/11 04:33:56;;;;;;;48.53;20.77;;;2.30;99.90;;;;;;5046417;28;20206;-45
2021/12/11 04:36:25;;;;;;;49.03;22.03;;;2.30;99.90;;;;;;5045193;28;20203;-45
2021/12/11 04:38:53;;;;;;;49.03;21.63;;;2.30;99.90;;;;;;5059672;28;20207;-44
2021/12/11 04:41:26;;;;;;;45.47;20.77;;;2.30;99.90;;;;;;5051871;28;20199;-44
2021/12/11 04:43:54;;;;;;;46.50;20.90;;;2.30;99.90;;;;;;5043662;28;20518;-42
2021/12/11 04:46:21;;;;;;;44.90;21.43;;;2.30;99.90;;;;;;5058235;28;20210;-43
2021/12/11 04:48:59;;;;;;;44.43;21.07;;;2.30;99.90;;;;;;5049384;28;20216;-45
2021/12/11 04:51:36;;;;;;;43.40;20.60;;;2.30;99.90;;;;;;5041149;28;20215;-43
2021/12/11 04:54:17;;;;;;;44.63;20.37;;;2.30;99.90;;;;;;5056339;28;20673;-46
2021/12/11 04:57:06;;;;;;;48.10;20.53;;;2.30;99.90;;;;;;5057520;28;20198;-44
2021/12/11 04:59:47;;;;;;;44.80;21.63;;;2.30;99.90;;;;;;5061494;28;20558;-48
2021/12/11 05:02:45;;;;;;;46.23;19.33;;;2.30;99.90;;;;;;5051542;28;20207;-45
2021/12/11 05:05:18;;;;;;;49.23;21.33;;;2.30;99.90;;;;;;5050522;28;20199;-45
2021/12/11 05:07:59;;;;;;;45.13;20.13;;;2.30;99.90;;;;;;5044096;28;20209;-42
2021/12/11 05:10:36;;;;;;;42.93;19.97;;;2.30;99.90;;;;;;5046372;28;20272;-46
2021/12/11 05:13:03;;;;;;;48.20;20.70;;;2.30;99.90;;;;;;5058209;28;20650;-45
2021/12/11 05:15:33;;;;;;;43.20;22.30;;;2.40;99.90;;;;;;5041359;28;20210;-42
2021/12/11 05:18:01;;;;;;;39.03;19.23;;;2.30;99.90;;;;;;5047028;28;20668;-43
2021/12/11 05:20:32;;;;;;;38.43;20.13;;;2.40;99.90;;;;;;5041406;28;20316;-43
2021/12/11 05:23:00;;;;;;;47.20;20.13;;;2.40;99.90;;;;;;5040592;28;20215;-44
2021/12/11 05:25:28;;;;;;;45.10;21.23;;;2.40;99.90;;;;;;5058692;28;20203;-43
2021/12/11 05:27:55;;;;;;;47.27;21.67;;;2.40;99.90;;;;;;5053968;28;20206;-47
2021/12/11 05:30:25;;;;;;;43.07;20.83;;;2.40;99.90;;;;;;5057025;28;20699;-42
2021/12/11 05:32:53;;;;;;;45.43;21.17;;;2.40;99.90;;;;;;5061820;28;20205;-45
2021/12/11 05:35:20;;;;;;;44.80;20.57;;;2.30;99.90;;;;;;5061684;28;20195;-44
2021/12/11 05:37:47;;;;;;;45.40;20.40;;;2.30;99.90;;;;;;5038982;28;20218;-44
2021/12/11 05:40:18;;;;;;;45.23;20.73;;;2.30;99.90;;;;;;5049689;28;20606;-46
2021/12/11 05:42:46;;;;;;;48.67;19.87;;;2.30;99.90;;;;;;5060717;28;20218;-47
2021/12/11 05:45:13;;;;;;;43.60;19.27;;;2.20;99.90;;;;;;5062828;28;20213;-43
2021/12/11 05:47:41;;;;;;;48.20;20.27;;;2.10;99.90;;;;;;5061438;28;20467;-44
2021/12/11 05:50:11;;;;;;;43.03;20.20;;;2.10;99.90;;;;;;5064004;28;20756;-43
2021/12/11 05:52:38;;;;;;;42.33;19.93;;;2.10;99.90;;;;;;5043424;28;20187;-45
2021/12/11 05:55:09;;;;;;;44.67;20.87;;;2.00;99.90;;;;;;5040197;28;20213;-44
2021/12/11 05:57:37;;;;;;;54.30;20.97;;;2.10;99.90;;;;;;5048079;28;20199;-44
2021/12/11 06:00:06;;;;;;;47.37;20.53;;;2.00;99.90;;;;;;5057523;28;20223;-42
2021/12/11 06:02:34;;;;;;;46.97;19.63;;;2.00;99.90;;;;;;5040627;28;20195;-43
2021/12/11 06:05:02;;;;;;;49.63;20.63;;;2.00;99.90;;;;;;5063345;28;20198;-45
2021/12/11 06:07:31;;;;;;;45.23;20.00;;;2.00;99.90;;;;;;5059470;28;20195;-45
2021/12/11 06:10:00;;;;;;;40.53;18.40;;;1.90;99.90;;;;;;5042960;28;20234;-44
2021/12/11 06:12:28;;;;;;;42.70;20.13;;;1.90;99.90;;;;;;5046641;28;20831;-43
2021/12/11 06:14:56;;;;;;;41.53;19.23;;;1.90;99.90;;;;;;5044124;28;20210;-42
2021/12/11 06:17:25;;;;;;;40.07;19.03;;;1.90;99.90;;;;;;5060384;28;20221;-43
2021/12/11 06:19:53;;;;;;;39.27;18.23;;;1.80;99.90;;;;;;5044147;28;20222;-46
2021/12/11 06:22:23;;;;;;;36.93;18.37;;;1.80;99.90;;;;;;5041823;28;20625;-43
2021/12/11 06:24:50;;;;;;;42.97;18.50;;;1.70;99.90;;;;;;5044886;28;20207;-46
2021/12/11 06:27:17;;;;;;;37.27;18.40;;;1.70;99.90;;;;;;5049510;28;20195;-42
2021/12/11 06:29:44;;;;;;;41.03;19.40;;;1.60;99.90;;;;;;5044986;28;20219;-43
2021/12/11 06:32:13;;;;;;;37.70;18.17;;;1.60;99.90;;;;;;5049159;28;20206;-43
2021/12/11 06:34:39;;;;;;;41.50;18.97;;;1.50;99.90;;;;;;5055881;28;20214;-43
2021/12/11 06:37:14;;;;;;;41.00;17.60;;;1.40;99.90;;;;;;5047550;28;20193;-47
2021/12/11 06:39:41;;;;;;;40.03;19.47;;;1.40;99.90;;;;;;5049919;28;20267;-43
2021/12/11 06:42:09;;;;;;;44.67;19.80;;;1.40;99.90;;;;;;5050255;28;20198;-43
2021/12/11 06:44:36;;;;;;;37.00;18.47;;;1.40;99.90;;;;;;5054344;28;20253;-45
2021/12/11 06:47:07;;;;;;;42.80;19.17;;;1.30;99.90;;;;;;5052961;28;20294;-47
2021/12/11 06:49:38;;;;;;;40.53;18.77;;;1.30;99.90;;;;;;5046347;28;20722;-44
2021/12/11 06:52:10;;;;;;;39.77;18.33;;;1.30;99.90;;;;;;5049778;28;20201;-45
2021/12/11 06:54:37;;;;;;;39.90;18.97;;;1.30;99.90;;;;;;5057646;28;20199;-44
2021/12/11 06:57:04;;;;;;;48.70;19.63;;;1.30;99.90;;;;;;5038382;28;20217;-42
2021/12/11 06:59:31;;;;;;;34.17;17.80;;;1.20;99.90;;;;;;5053977;28;20707;-43
2021/12/11 07:01:58;;;;;;;46.90;17.97;;;1.20;99.90;;;;;;5045061;28;20571;-45
2021/12/11 07:04:25;;;;;;;37.73;17.90;;;1.20;99.90;;;;;;5044060;28;20230;-43
2021/12/11 07:06:54;;;;;;;37.50;17.07;;;1.20;99.90;;;;;;5052524;28;20206;-43
2021/12/11 07:09:24;;;;;;;39.20;18.17;;;1.10;99.90;;;;;;5053002;28;20937;-46
2021/12/11 07:11:52;;;;;;;40.43;18.50;;;1.10;99.90;;;;;;5038793;28;20730;-44
2021/12/11 07:14:21;;;;;;;35.30;17.37;;;1.10;99.90;;;;;;5049098;28;20293;-45
2021/12/11 07:16:49;;;;;;;32.10;16.60;;;1.00;99.90;;;;;;5050705;28;20198;-43
2021/12/11 07:19:16;;;;;;;37.97;18.17;;;0.90;99.90;;;;;;5048988;28;20234;-44
2021/12/11 07:21:44;;;;;;;36.60;17.27;;;0.90;99.90;;;;;;5053656;28;20218;-45
2021/12/11 07:24:15;;;;;;;37.20;17.43;;;0.90;99.90;;;;;;5043536;28;20379;-46
2021/12/11 07:26:42;;;;;;;42.80;17.50;;;0.90;99.90;;;;;;5042402;28;20214;-44
2021/12/11 07:29:13;;;;;;;40.63;16.33;;;0.80;99.90;;;;;;5044162;28;20226;-47
2021/12/11 07:31:42;;;;;;;38.80;17.20;;;0.80;99.90;;;;;;5048217;28;20249;-46
2021/12/11 07:34:09;;;;;;;44.17;18.23;;;0.70;99.90;;;;;;5043829;28;20187;-43
2021/12/11 07:36:37;;;;;;;45.80;20.07;;;0.70;99.90;;;;;;5053826;28;20221;-43
2021/12/11 07:39:07;;;;;;;43.13;18.00;;;0.70;99.90;;;;;;5047363;28;20218;-44
2021/12/11 07:41:36;;;;;;;36.43;17.20;;;0.70;99.90;;;;;;5042273;28;20218;-44
2021/12/11 07:44:03;;;;;;;37.70;18.70;;;0.70;99.90;;;;;;5042332;28;20759;-45
2021/12/11 07:46:31;;;;;;;42.73;18.70;;;0.70;99.90;;;;;;5052736;28;20671;-43
2021/12/11 07:48:59;;;;;;;35.07;17.50;;;0.70;99.90;;;;;;5046297;28;20228;-43
2021/12/11 07:51:28;;;;;;;42.47;17.93;;;0.70;99.90;;;;;;5049716;28;20215;-44
2021/12/11 07:53:55;;;;;;;38.30;18.27;;;0.80;99.90;;;;;;5049278;28;20718;-46
2021/12/11 07:56:22;;;;;;;39.73;18.20;;;0.80;99.90;;;;;;5050977;28;20686;-45
2021/12/11 07:58:54;;;;;;;38.40;18.30;;;0.90;99.90;;;;;;5046000;28;20226;-46
2021/12/11 08:01:21;;;;;;;36.67;17.67;;;0.90;99.90;;;;;;5058363;28;20198;-46
2021/12/11 08:03:48;;;;;;;40.63;18.77;;;1.00;99.90;;;;;;5055842;28;20234;-43
2021/12/11 08:06:16;;;;;;;38.17;18.47;;;1.00;99.90;;;;;;5047585;28;21645;-45
2021/12/11 08:08:45;;;;;;;43.53;19.33;;;1.00;99.90;;;;;;5060385;28;20230;-44
2021/12/11 08:11:17;;;;;;;43.23;19.50;;;1.10;99.90;;;;;;5048376;28;20950;-43
2021/12/11 08:13:46;;;;;;;37.70;17.43;;;1.20;99.90;;;;;;5053705;28;20219;-44
2021/12/11 08:16:18;;;;;;;39.30;17.83;;;1.30;99.90;;;;;;5058042;28;20700;-45
2021/12/11 08:18:45;;;;;;;42.47;18.30;;;1.30;99.90;;;;;;5057945;28;20214;-46
2021/12/11 08:21:13;;;;;;;40.47;19.20;;;1.40;99.90;;;;;;5049871;28;20204;-45
2021/12/11 08:23:44;;;;;;;39.30;17.03;;;1.40;99.90;;;;;;5050438;28;20221;-43
2021/12/11 08:26:11;;;;;;;38.70;18.97;;;1.50;99.90;;;;;;5041566;28;20912;-47
2021/12/11 08:28:38;;;;;;;39.37;17.73;;;1.50;99.90;;;;;;5044761;28;20595;-43
2021/12/11 08:31:05;;;;;;;45.77;18.47;;;1.60;99.90;;;;;;5049160;28;20296;-47
2021/12/11 08:33:33;;;;;;;38.03;18.43;;;1.70;99.90;;;;;;5056843;28;20535;-44
2021/12/11 08:36:01;;;;;;;38.23;17.63;;;1.70;99.90;;;;;;5043087;28;20207;-45
2021/12/11 08:38:28;;;;;;;38.47;16.90;;;1.70;99.90;;;;;;5051407;28;20261;-46
2021/12/11 08:40:58;;;;;;;36.47;18.17;;;1.80;99.90;;;;;;5048257;28;20937;-44
2021/12/11 08:43:25;;;;;;;38.03;17.57;;;1.80;99.90;;;;;;5057670;28;20234;-45
2021/12/11 08:46:07;;;;;;;45.53;20.10;;;1.80;99.90;;;;;;5032043;28;20790;-43
2021/12/11 08:48:37;;;;;;;38.00;16.43;;;1.90;99.90;;;;;;5056819;28;20267;-45
2021/12/11 08:51:09;;;;;;;32.77;17.13;;;1.90;99.90;;;;;;5045585;28;20445;-46
2021/12/11 08:53:36;;;;;;;32.23;18.17;;;1.90;99.90;;;;;;5051068;28;20724;-43
2021/12/11 08:56:07;;;;;;;43.17;18.60;;;2.00;99.90;;;;;;5041026;28;20399;-47
2021/12/11 08:58:34;;;;;;;32.47;16.97;;;2.00;99.90;;;;;;5048542;28;20226;-43
2021/12/11 09:01:07;;;;;;;36.77;17.47;;;2.00;99.90;;;;;;5049241;28;20951;-46
2021/12/11 09:03:40;;;;;;;31.00;15.93;;;2.10;99.90;;;;;;5054610;28;20206;-43
2021/12/11 09:06:11;;;;;;;32.87;16.43;;;2.10;99.90;;;;;;5057661;28;20198;-46
2021/12/11 09:08:43;;;;;;;33.77;16.83;;;2.10;99.90;;;;;;5043382;28;20226;-45
2021/12/11 09:11:14;;;;;;;31.33;16.63;;;2.20;99.90;;;;;;5046809;28;20199;-46
2021/12/11 09:13:45;;;;;;;33.90;16.67;;;2.20;99.90;;;;;;5050175;28;20206;-44
2021/12/11 09:16:16;;;;;;;36.37;17.30;;;2.30;99.90;;;;;;5033172;28;20199;-44
2021/12/11 09:18:47;;;;;;;36.83;17.17;;;2.30;99.90;;;;;;5048631;28;20240;-44
2021/12/11 09:21:18;;;;;;;29.73;16.13;;;2.30;99.90;;;;;;5050989;28;20194;-43
2021/12/11 09:23:51;;;;;;;36.43;17.67;;;2.40;99.90;;;;;;5048428;28;20361;-46
2021/12/11 09:26:24;;;;;;;31.23;16.17;;;2.40;99.90;;;;;;5054634;28;20543;-46
2021/12/11 09:28:54;;;;;;;34.53;15.80;;;2.40;99.90;;;;;;5041578;28;20247;-46
2021/12/11 09:31:25;;;;;;;32.67;16.80;;;2.50;99.90;;;;;;5040167;28;20698;-44
2021/12/11 09:33:57;;;;;;;34.37;15.80;;;2.50;99.90;;;;;;5057395;28;20281;-48
2021/12/11 09:36:30;;;;;;;36.80;17.17;;;2.50;99.90;;;;;;5055181;28;20563;-46
2021/12/11 09:39:05;;;;;;;30.80;16.67;;;2.60;99.90;;;;;;5044454;28;20215;-44
2021/12/11 09:41:33;;;;;;;33.17;16.23;;;2.60;99.90;;;;;;5046739;28;20225;-44
2021/12/11 09:44:07;;;;;;;32.23;16.03;;;2.70;99.90;;;;;;5044479;28;20226;-49
2021/12/11 09:46:37;;;;;;;33.27;16.67;;;2.70;99.90;;;;;;5043338;28;20210;-48
2021/12/11 09:49:06;;;;;;;28.93;15.17;;;2.70;99.90;;;;;;5051196;28;20315;-46
2021/12/11 09:51:38;;;;;;;28.07;15.07;;;2.70;99.90;;;;;;5057089;28;20226;-46
2021/12/11 09:54:10;;;;;;;33.33;14.60;;;2.70;99.90;;;;;;5041067;28;20187;-45
2021/12/11 09:56:42;;;;;;;27.83;15.63;;;2.80;99.90;;;;;;5046412;28;20282;-49
2021/12/11 09:59:14;;;;;;;32.17;15.30;;;2.80;99.90;;;;;;5055315;28;20225;-45
2021/12/11 10:01:44;;;;;;;28.60;14.03;;;2.90;99.90;;;;;;5038729;28;20871;-46
2021/12/11 10:04:16;;;;;;;31.83;13.93;;;2.90;99.90;;;;;;5046330;28;20215;-46
2021/12/11 10:07:02;;;;;;;29.97;15.80;;;2.90;99.90;;;;;;5053805;28;20209;-48
2021/12/11 10:09:34;;;;;;;31.73;14.60;;;2.90;99.90;;;;;;5049941;28;20218;-45
2021/12/11 10:12:06;;;;;;;27.97;14.20;;;3.00;99.90;;;;;;5039743;28;20207;-44
2021/12/11 10:14:37;;;;;;;30.80;15.13;;;3.00;99.90;;;;;;5055231;28;20202;-49
2021/12/11 10:17:09;;;;;;;30.50;14.70;;;3.00;99.90;;;;;;5037067;28;20195;-44
2021/12/11 10:19:36;;;;;;;26.27;14.10;;;3.10;99.90;;;;;;5053954;28;20223;-47
2021/12/11 10:22:09;;;;;;;22.70;13.23;;;3.10;99.90;;;;;;5060842;28;20199;-45
2021/12/11 10:24:39;;;;;;;30.43;14.03;;;3.20;99.90;;;;;;5047620;28;20228;-44
2021/12/11 10:27:09;;;;;;;33.53;15.53;;;3.20;99.90;;;;;;5048926;28;20730;-45
2021/12/11 10:29:40;;;;;;;30.17;15.17;;;3.20;99.90;;;;;;5042561;28;20227;-46
2021/12/11 10:32:10;;;;;;;25.70;14.47;;;3.30;99.90;;;;;;5054363;28;20199;-49
2021/12/11 10:34:39;;;;;;;25.67;12.97;;;3.40;99.90;;;;;;5032500;28;20211;-44
2021/12/11 10:37:11;;;;;;;24.87;14.73;;;3.40;99.90;;;;;;5049192;28;20195;-44
2021/12/11 10:39:45;;;;;;;27.83;15.33;;;3.50;99.90;;;;;;5043257;28;20217;-45
2021/12/11 10:42:12;;;;;;;24.63;14.67;;;3.50;99.90;;;;;;5046910;28;20682;-46
2021/12/11 10:44:43;;;;;;;28.70;15.27;;;3.60;99.90;;;;;;5033933;28;20211;-45
2021/12/11 10:47:13;;;;;;;25.00;14.20;;;3.60;99.90;;;;;;5057215;28;20597;-44
2021/12/11 10:49:43;;;;;;;23.93;14.03;;;3.60;99.90;;;;;;5039122;28;20245;-45
2021/12/11 10:52:13;;;;;;;26.00;14.40;;;3.70;99.90;;;;;;5057009;28;20199;-43
2021/12/11 10:54:40;;;;;;;28.03;15.47;;;3.70;99.90;;;;;;5050904;28;20225;-44
2021/12/11 10:57:08;;;;;;;21.67;14.13;;;3.70;99.90;;;;;;5044352;28;20210;-44
2021/12/11 10:59:38;;;;;;;25.17;14.13;;;3.70;99.90;;;;;;5048946;28;20227;-44
2021/12/11 11:02:10;;;;;;;25.83;15.40;;;3.70;99.90;;;;;;5048069;28;20253;-45
2021/12/11 11:04:42;;;;;;;24.30;13.83;;;3.70;99.90;;;;;;5043448;28;20211;-45
2021/12/11 11:07:11;;;;;;;24.73;14.83;;;3.80;99.90;;;;;;5049028;28;20199;-43
2021/12/11 11:09:38;;;;;;;24.10;13.53;;;3.80;99.90;;;;;;5054218;28;20218;-43
2021/12/11 11:12:08;;;;;;;26.03;14.00;;;3.80;99.90;;;;;;5052469;28;20206;-45
2021/12/11 11:14:35;;;;;;;21.50;13.73;;;3.80;99.90;;;;;;5049454;28;20213;-44
2021/12/11 11:17:08;;;;;;;25.00;14.57;;;3.80;99.90;;;;;;5051382;28;20199;-44
2021/12/11 11:19:38;;;;;;;25.83;14.30;;;3.90;99.90;;;;;;5037672;28;20223;-44
2021/12/11 11:22:08;;;;;;;27.43;14.83;;;3.90;99.90;;;;;;5039892;28;20264;-46
2021/12/11 11:24:39;;;;;;;21.47;13.77;;;3.90;99.90;;;;;;5041482;28;20219;-48
2021/12/11 11:27:06;;;;;;;24.83;13.03;;;3.90;99.90;;;;;;5061521;28;20202;-44
2021/12/11 11:29:37;;;;;;;21.23;12.80;;;3.90;99.90;;;;;;5042216;28;20707;-46
2021/12/11 11:32:09;;;;;;;19.80;12.57;;;4.00;99.90;;;;;;5048335;28;20203;-47
2021/12/11 11:34:40;;;;;;;22.27;12.73;;;4.00;99.90;;;;;;5040910;28;20229;-43
2021/12/11 11:37:08;;;;;;;19.67;12.37;;;4.00;99.90;;;;;;5042425;28;20748;-48
2021/12/11 11:39:35;;;;;;;19.00;11.33;;;4.00;99.90;;;;;;5041440;28;22609;-44
2021/12/11 11:42:07;;;;;;;15.70;10.33;;;4.00;99.90;;;;;;5051282;28;20211;-44
2021/12/11 11:44:35;;;;;;;19.70;11.80;;;4.10;99.90;;;;;;5050209;28;20199;-44
2021/12/11 11:47:04;;;;;;;22.67;12.10;;;4.20;99.90;;;;;;5052259;28;20203;-47
2021/12/11 11:49:34;;;;;;;19.87;12.80;;;4.20;99.90;;;;;;5047838;28;20318;-43
2021/12/11 11:52:07;;;;;;;16.50;11.23;;;4.20;99.90;;;;;;5046611;28;20207;-47
2021/12/11 11:54:35;;;;;;;18.50;11.23;;;4.20;99.90;;;;;;5041433;28;20207;-43
2021/12/11 11:57:07;;;;;;;23.00;12.77;;;4.30;99.90;;;;;;5050754;28;20210;-44
2021/12/11 11:59:34;;;;;;;20.23;12.47;;;4.30;99.90;;;;;;5036823;28;20222;-43
2021/12/11 12:02:04;;;;;;;20.37;11.67;;;4.30;99.90;;;;;;5050700;28;20230;-45
2021/12/11 12:04:35;;;;;;;21.03;12.10;;;4.30;99.90;;;;;;5049733;28;20820;-44
2021/12/11 12:07:03;;;;;;;19.53;11.17;;;4.40;99.90;;;;;;5053190;28;20210;-44
2021/12/11 12:09:35;;;;;;;20.60;11.33;;;4.40;99.90;;;;;;5033096;28;20211;-46
2021/12/11 12:12:02;;;;;;;17.30;10.87;;;4.40;99.90;;;;;;5053043;28;20203;-43
2021/12/11 12:14:32;;;;;;;18.80;11.10;;;4.40;99.90;;;;;;5043311;28;20727;-42
2021/12/11 12:16:59;;;;;;;21.73;12.00;;;4.40;99.90;;;;;;5062565;28;20565;-42
2021/12/11 12:19:27;;;;;;;18.77;11.37;;;4.40;99.90;;;;;;5049466;28;20583;-42
2021/12/11 12:21:58;;;;;;;18.53;11.77;;;4.40;99.90;;;;;;5061043;28;20194;-43
2021/12/11 12:24:31;;;;;;;21.30;11.43;;;4.50;99.90;;;;;;5042572;28;20227;-43
2021/12/11 12:26:58;;;;;;;20.07;10.93;;;4.50;99.90;;;;;;5051930;28;20199;-45
2021/12/11 12:29:26;;;;;;;19.70;11.33;;;4.50;99.90;;;;;;5049636;28;20211;-43
2021/12/11 12:31:57;;;;;;;17.33;10.03;;;4.50;99.90;;;;;;5053487;28;20277;-44
2021/12/11 12:34:25;;;;;;;23.60;13.93;;;4.50;99.90;;;;;;5045204;28;20303;-42
2021/12/11 12:36:55;;;;;;;18.80;12.27;;;4.50;99.90;;;;;;5053548;28;20202;-45
2021/12/11 12:39:25;;;;;;;73.77;25.33;;;4.60;99.90;;;;;;5052319;28;20242;-43
2021/12/11 12:42:03;;;;;;;22.30;10.63;;;4.60;99.90;;;;;;5047097;28;20321;-47
2021/12/11 12:44:30;;;;;;;21.33;10.93;;;4.60;99.90;;;;;;5052853;28;20195;-42
2021/12/11 12:47:01;;;;;;;16.93;10.17;;;4.60;99.90;;;;;;5047960;28;20229;-46
2021/12/11 12:49:31;;;;;;;14.53;10.37;;;4.60;99.90;;;;;;5050216;28;20223;-47